createdAt,value
2019-04-01T04:41:19.354Z,98315.67
2019-04-01T04:46:42.703Z,98309.05
2019-04-01T04:52:26.954Z,98320.91
2019-04-01T04:58:01.164Z,98332.75
2019-04-01T05:09:45.174Z,98310.64
2019-04-01T05:15:24.672Z,98321.08
2019-04-01T05:34:11.690Z,98294.86
2019-04-01T05:45:52.058Z,98296.59
2019-04-01T05:51:35.267Z,98304.23
2019-04-01T06:10:53.710Z,98292.67
2019-04-01T06:16:22.858Z,98303.70
2019-04-01T06:48:11.754Z,98348.24
2019-04-01T08:14:07.501Z,98343.47
2019-04-01T08:19:31.078Z,98348.12
2019-04-01T08:32:15.263Z,98340.21
2019-04-01T08:37:41.936Z,98331.52
2019-04-01T08:43:10.683Z,98331.16
2019-04-01T08:48:36.111Z,98338.33
2019-04-01T08:54:52.449Z,98327.84
2019-04-01T09:01:11.163Z,98354.89
2019-04-01T09:07:13.639Z,98335.63
2019-04-01T09:12:40.696Z,98322.80
2019-04-01T09:18:02.427Z,98326.45
2019-04-01T10:29:32.793Z,98269.63
2019-04-01T10:35:49.055Z,98255.98
2019-04-01T10:41:41.329Z,98241.41
2019-04-01T10:47:22.243Z,98236.53
2019-04-01T10:52:45.095Z,98263.14
2019-04-01T10:58:15.527Z,98238.20
2019-04-01T11:17:17.162Z,98254.79
2019-04-01T11:22:40.611Z,98240.00
2019-04-01T11:28:08.380Z,98240.00
2019-04-01T12:06:15.884Z,98213.44
2019-04-01T12:12:04.787Z,98201.18
2019-04-01T12:17:41.856Z,98201.58
2019-04-01T12:23:32.998Z,98214.55
2019-04-01T12:29:22.761Z,98195.09
2019-04-01T12:35:08.749Z,98230.41
2019-04-01T12:40:49.658Z,98214.16
2019-04-01T12:46:28.007Z,98192.23
2019-04-01T12:51:58.977Z,98204.77
2019-04-01T12:57:26.049Z,98218.19
2019-04-01T13:02:52.583Z,98213.44
2019-04-01T13:08:32.288Z,98186.44
2019-04-01T13:14:29.062Z,98186.44
2019-04-01T13:20:02.902Z,98176.66
2019-04-01T13:25:48.053Z,98206.05
2019-04-01T13:37:20.533Z,98178.23
2019-04-01T13:42:58.450Z,98203.69
2019-04-01T13:48:31.546Z,98203.28
2019-04-01T13:54:08.638Z,98203.28
2019-04-01T13:59:55.235Z,98192.78
2019-04-01T14:05:46.715Z,98194.31
2019-04-01T14:11:30.807Z,98196.13
2019-04-01T14:16:58.202Z,98186.86
2019-04-01T14:23:24.380Z,98214.16
2019-04-01T14:56:14.463Z,98217.71
2019-04-01T15:02:02.003Z,98204.84
2019-04-01T17:00:31.125Z,98339.86
2019-04-01T17:59:34.516Z,98387.34
